Time;durP1;ratioP1;P1;durP2;ratioP2;P2;SDS_P1;SDS_P2;PMS_P1;PMS_P2;Temp;Humidity;BMP_temperature;BMP_pressure;BME280_temperature;BME280_humidity;BME280_pressure;Samples;Min_cycle;Max_cycle;Signal;HPM_P1;HPM_P2
2022/01/23 00:00:37;;;;;;;40.60;25.42;;;;;;;-2.97;100.00;99997.00;2090697;28;20289;-69
2022/01/23 00:01:48;;;;;;;40.97;26.27;;;;;;;-2.96;100.00;100001.22;2090866;28;20213;-69
2022/01/23 00:02:59;;;;;;;40.33;25.58;;;;;;;-2.94;100.00;100007.09;2091470;28;20691;-69
2022/01/23 00:04:01;;;;;;;41.75;24.98;;;;;;;-2.94;100.00;100004.47;2091065;28;20206;-70
2022/01/23 00:05:08;;;;;;;44.17;25.33;;;;;;;-2.93;100.00;100008.69;2090920;28;20669;-69
2022/01/23 00:06:11;;;;;;;36.67;25.50;;;;;;;-2.97;100.00;99999.59;2090245;28;20720;-69
2022/01/23 00:07:15;;;;;;;41.58;25.70;;;;;;;-2.97;100.00;99997.00;2090957;28;20248;-69
2022/01/23 00:08:20;;;;;;;40.85;25.60;;;;;;;-3.03;100.00;99994.34;2091495;28;20694;-69
2022/01/23 00:09:24;;;;;;;39.97;25.77;;;;;;;-3.08;100.00;100002.69;2091652;28;20187;-69
2022/01/23 00:10:28;;;;;;;41.88;25.52;;;;;;;-3.13;100.00;100002.44;2090843;28;20289;-69
2022/01/23 00:11:39;;;;;;;35.95;23.88;;;;;;;-3.13;100.00;100000.66;2090776;28;20187;-69
2022/01/23 00:12:47;;;;;;;36.55;24.27;;;;;;;-3.16;100.00;100002.81;2090607;28;20295;-69
2022/01/23 00:17:54;;;;;;;40.67;24.60;;;;;;;-3.18;100.00;100008.22;2091005;28;20252;-69
2022/01/23 00:18:57;;;;;;;35.75;24.13;;;;;;;-3.17;100.00;100003.81;2090920;28;20668;-70
2022/01/23 00:20:01;;;;;;;40.33;24.50;;;;;;;-3.17;100.00;100003.81;2082215;28;20618;-70
2022/01/23 00:21:04;;;;;;;38.63;24.75;;;;;;;-3.20;100.00;100004.19;2090294;28;20195;-69
2022/01/23 00:22:10;;;;;;;36.13;24.88;;;;;;;-3.09;100.00;100005.50;2091504;28;20203;-69
2022/01/23 00:23:20;;;;;;;35.08;25.02;;;;;;;-3.14;100.00;100003.44;2091335;28;20219;-68
2022/01/23 00:31:14;;;;;;;38.92;24.55;;;;;;;-3.16;100.00;100010.63;2091032;28;20744;-69
2022/01/23 00:32:18;;;;;;;40.35;25.25;;;;;;;-3.17;100.00;100009.03;2090795;28;20272;-69
2022/01/23 00:33:23;;;;;;;40.08;23.63;;;;;;;-3.19;100.00;100004.00;2082291;28;20212;-69
2022/01/23 00:34:24;;;;;;;38.10;24.40;;;;;;;-3.18;100.00;100002.19;2090570;28;20199;-69
2022/01/23 00:35:29;;;;;;;42.73;24.03;;;;;;;-3.21;100.00;100008.59;2082605;28;20682;-69
2022/01/23 00:36:32;;;;;;;38.03;25.08;;;;;;;-3.14;100.00;100009.44;2082372;28;20469;-69
2022/01/23 00:37:36;;;;;;;37.10;24.35;;;;;;;-3.13;100.00;100005.03;2090697;28;20654;-70
2022/01/23 00:38:38;;;;;;;39.50;25.83;;;;;;;-3.15;100.00;100014.88;2091234;28;20187;-69
2022/01/23 00:39:40;;;;;;;34.28;23.58;;;;;;;-3.09;100.00;100005.50;2090469;28;20203;-69
2022/01/23 00:40:43;;;;;;;36.35;25.55;;;;;;;-3.03;100.00;100015.22;2082560;28;20204;-70
2022/01/23 00:41:46;;;;;;;36.30;24.20;;;;;;;-3.07;100.00;100019.16;2090745;28;20225;-69
2022/01/23 00:42:48;;;;;;;36.90;24.17;;;;;;;-3.13;100.00;100000.66;2090529;28;20191;-69
2022/01/23 00:43:51;;;;;;;35.28;23.92;;;;;;;-3.09;100.00;100011.53;2090839;28;20183;-69
2022/01/23 00:45:01;;;;;;;41.70;24.83;;;;;;;-3.10;100.00;100004.69;2091192;28;20190;-69
2022/01/23 00:47:22;;;;;;;39.10;23.85;;;;;;;-3.11;100.00;100013.53;2090088;28;20306;-69
2022/01/23 00:48:34;;;;;;;44.97;24.05;;;;;;;-3.13;100.00;100008.50;2090690;28;20692;-69
2022/01/23 00:49:39;;;;;;;34.58;23.77;;;;;;;-3.04;100.00;100001.34;2091146;28;20168;-70
2022/01/23 00:50:43;;;;;;;32.13;21.85;;;;;;;-3.04;100.00;100008.34;2090725;28;20248;-69
2022/01/23 00:51:46;;;;;;;34.78;22.40;;;;;;;-3.11;100.00;100008.31;2090144;28;20229;-69
2022/01/23 00:52:52;;;;;;;36.35;23.67;;;;;;;-3.11;100.00;100008.31;2091162;28;20190;-69
2022/01/23 00:53:59;;;;;;;35.20;23.52;;;;;;;-3.13;100.00;100005.03;2090446;28;20195;-69
2022/01/23 00:55:04;;;;;;;32.15;22.67;;;;;;;-3.12;100.00;100011.91;2082862;28;20557;-69
2022/01/23 00:56:08;;;;;;;35.22;23.77;;;;;;;-3.08;100.00;100012.34;2082742;28;20290;-69
2022/01/23 00:57:14;;;;;;;36.22;22.80;;;;;;;-3.08;100.00;100010.53;2082574;28;20222;-69
2022/01/23 00:58:17;;;;;;;38.90;24.27;;;;;;;-3.02;100.00;100003.78;2090613;28;20547;-69
2022/01/23 00:59:19;;;;;;;37.95;24.13;;;;;;;-3.09;100.00;100002.88;2090449;28;20562;-68
2022/01/23 01:00:21;;;;;;;33.95;22.23;;;;;;;-3.06;100.00;100000.72;2082550;28;20689;-69
2022/01/23 01:01:26;;;;;;;42.05;24.25;;;;;;;-3.14;100.00;99999.00;2082383;28;20223;-69
2022/01/23 01:02:29;;;;;;;34.10;23.60;;;;;;;-3.12;100.00;100006.69;2090633;28;20190;-69
2022/01/23 01:03:32;;;;;;;33.08;22.75;;;;;;;-3.13;100.00;99999.81;2090634;28;20290;-69
2022/01/23 01:04:36;;;;;;;36.13;23.90;;;;;;;-3.15;100.00;99996.59;2090470;28;20190;-69
2022/01/23 01:05:44;;;;;;;34.88;22.95;;;;;;;-3.20;100.00;100010.22;2090334;28;20191;-69
2022/01/23 01:06:46;;;;;;;32.92;23.30;;;;;;;-3.22;100.00;99988.69;2082804;28;20254;-69
2022/01/23 01:07:52;;;;;;;35.45;22.73;;;;;;;-3.21;100.00;100000.75;2082075;28;20571;-69
2022/01/23 01:09:01;;;;;;;34.05;22.65;;;;;;;-3.20;100.00;99996.34;2074535;28;20295;-69
2022/01/23 01:10:13;;;;;;;34.83;23.00;;;;;;;-3.17;100.00;99993.38;2082113;28;20207;-69
2022/01/23 01:11:41;;;;;;;27.23;22.00;;;;;;;-3.21;100.00;99998.16;2075724;28;20204;-70
2022/01/23 01:12:42;;;;;;;33.75;22.08;;;;;;;-3.18;100.00;99991.75;2076756;28;20217;-69
2022/01/23 01:14:06;;;;;;;33.47;22.45;;;;;;;-3.22;100.00;99986.06;2074150;28;20675;-69
2022/01/23 01:15:30;;;;;;;33.60;24.65;;;;;;;-3.20;100.00;99991.13;2077231;28;20202;-69
2022/01/23 01:16:52;;;;;;;37.17;23.33;;;;;;;-3.21;100.00;99994.75;2076517;28;20200;-69
2022/01/23 01:30:24;;;;;;;29.42;22.55;;;;;;;-3.26;100.00;99999.69;2082039;28;20191;-69
2022/01/23 01:31:32;;;;;;;31.20;21.42;;;;;;;-3.28;100.00;99996.47;2076630;28;20245;-69
2022/01/23 01:32:47;;;;;;;32.40;21.85;;;;;;;-3.28;100.00;99991.25;2074646;28;20247;-69
2022/01/23 01:33:54;;;;;;;31.77;21.40;;;;;;;-3.27;100.00;100016.34;2075797;28;20208;-69
2022/01/23 01:35:13;;;;;;;29.70;22.67;;;;;;;-3.28;100.00;99997.25;2074816;28;20188;-68
2022/01/23 01:36:30;;;;;;;31.42;22.52;;;;;;;-3.29;100.00;100003.47;2078565;28;20647;-69
2022/01/23 01:37:42;;;;;;;40.00;23.63;;;;;;;-3.29;100.00;99994.84;2084797;28;20199;-69
2022/01/23 01:38:45;;;;;;;31.80;22.52;;;;;;;-3.29;100.00;99997.44;2082342;28;20200;-69
2022/01/23 01:39:48;;;;;;;34.83;22.27;;;;;;;-3.30;100.00;99999.25;2082096;28;20651;-68
2022/01/23 01:40:56;;;;;;;28.73;22.20;;;;;;;-3.29;100.00;99997.44;2082012;28;20231;-69
2022/01/23 01:42:03;;;;;;;30.95;21.95;;;;;;;-3.28;100.00;100005.09;2083060;28;20253;-69
2022/01/23 01:43:06;;;;;;;30.77;23.27;;;;;;;-3.27;100.00;99998.06;2082754;28;20188;-69
2022/01/23 01:44:15;;;;;;;28.60;22.05;;;;;;;-3.32;100.00;100003.81;2082178;28;20589;-69
2022/01/23 01:45:56;;;;;;;31.20;22.05;;;;;;;-3.30;100.00;99994.03;2087280;28;20665;-69
2022/01/23 01:47:13;;;;;;;26.65;20.55;;;;;;;-3.32;100.00;100009.03;2090247;28;20668;-69
2022/01/23 01:48:23;;;;;;;32.20;22.50;;;;;;;-3.33;100.00;100004.00;2082707;28;20230;-69
2022/01/23 01:49:36;;;;;;;32.25;21.85;;;;;;;-3.33;100.00;100010.03;2083678;28;20195;-68
2022/01/23 01:50:45;;;;;;;27.25;21.58;;;;;;;-3.36;100.00;100004.38;2082082;28;20227;-69
2022/01/23 01:51:52;;;;;;;27.05;20.88;;;;;;;-3.37;100.00;100002.78;2082436;28;20227;-69
2022/01/23 01:52:57;;;;;;;33.42;21.75;;;;;;;-3.37;100.00;100003.56;2082381;28;20191;-69
2022/01/23 01:54:08;;;;;;;32.40;21.95;;;;;;;-3.31;100.00;99996.81;2082640;28;20208;-69
2022/01/23 01:55:15;;;;;;;30.30;21.00;;;;;;;-3.31;100.00;99999.41;2083201;28;20222;-69
2022/01/23 01:56:24;;;;;;;29.52;21.70;;;;;;;-3.32;100.00;100003.00;2083071;28;20192;-69
2022/01/23 01:57:36;;;;;;;30.05;22.00;;;;;;;-3.34;100.00;99998.00;2081863;28;20747;-69
2022/01/23 02:00:45;;;;;;;29.83;21.13;;;;;;;-3.35;100.00;99995.56;2082955;28;20195;-68
2022/01/23 02:03:37;;;;;;;28.55;21.10;;;;;;;-3.35;100.00;100006.00;2084607;28;20257;-69
2022/01/23 02:09:06;;;;;;;32.45;22.13;;;;;;;-3.37;100.00;100008.00;2090165;28;20202;-68
2022/01/23 02:10:11;;;;;;;31.60;20.77;;;;;;;-3.34;100.00;99994.56;2090450;28;20175;-69
2022/01/23 02:11:18;;;;;;;26.67;20.60;;;;;;;-3.36;100.00;99997.38;2089354;28;20199;-69
2022/01/23 02:12:56;;;;;;;26.13;20.80;;;;;;;-3.34;100.00;100010.22;2089812;28;20226;-68
2022/01/23 02:13:56;;;;;;;31.05;21.35;;;;;;;-3.34;100.00;100012.84;2085301;28;20215;-69
2022/01/23 02:15:26;;;;;;;31.67;22.40;;;;;;;-3.34;100.00;99997.19;2090905;28;20195;-69
2022/01/23 02:17:07;;;;;;;32.35;21.50;;;;;;;-3.34;100.00;99999.78;2090131;28;20190;-68
2022/01/23 02:18:26;;;;;;;24.98;20.67;;;;;;;-3.33;100.00;100004.00;2086257;28;20237;-70
2022/01/23 02:22:45;;;;;;;25.45;20.73;;;;;;;-3.36;100.00;99999.97;2085700;28;20191;-69
2022/01/23 02:24:11;;;;;;;34.90;20.25;;;;;;;-3.36;100.00;99988.72;2085793;28;20207;-69
2022/01/23 02:50:30;;;;;;;27.52;20.45;;;;;;;-3.32;100.00;100000.41;2083220;28;20621;-68
2022/01/23 02:51:46;;;;;;;27.58;20.08;;;;;;;-3.28;100.00;100017.34;2064481;28;20683;-69
2022/01/23 02:53:12;;;;;;;28.73;19.90;;;;;;;-3.32;100.00;100016.06;2084613;28;20255;-69
2022/01/23 02:54:40;;;;;;;26.10;19.40;;;;;;;-3.33;100.00;100014.44;2089368;28;20211;-70
2022/01/23 02:55:47;;;;;;;30.73;19.77;;;;;;;-3.36;100.00;100015.63;2085175;28;20785;-70
2022/01/23 02:56:54;;;;;;;26.30;20.80;;;;;;;-3.36;100.00;100007.00;2082243;28;20196;-69
2022/01/23 02:58:01;;;;;;;29.67;20.58;;;;;;;-3.39;100.00;100012.56;2082127;28;20254;-69
2022/01/23 02:59:22;;;;;;;28.40;21.50;;;;;;;-3.39;100.00;100009.94;2082671;28;20200;-69
2022/01/23 03:00:34;;;;;;;24.13;20.40;;;;;;;-3.43;100.00;100006.91;2083501;28;20200;-68
2022/01/23 03:01:48;;;;;;;30.75;21.55;;;;;;;-3.44;100.00;100006.09;2089810;28;20214;-69
2022/01/23 03:03:14;;;;;;;28.90;20.73;;;;;;;-3.48;100.00;100025.69;2090315;28;20176;-69
2022/01/23 03:04:41;;;;;;;26.48;20.10;;;;;;;-3.52;100.00;100021.84;2086211;28;20248;-69
2022/01/23 03:06:19;;;;;;;29.05;21.42;;;;;;;-3.45;100.00;100024.53;2089877;28;20171;-69
2022/01/23 03:07:50;;;;;;;31.20;21.55;;;;;;;-3.48;100.00;100032.72;2089957;28;20715;-69
2022/01/23 03:09:49;;;;;;;34.83;21.70;;;;;;;-3.53;100.00;100033.28;2089841;28;20555;-69
2022/01/23 03:10:34;;;;;;;27.35;20.58;;;;;;;-3.56;100.00;100031.03;2090107;28;20620;-69
2022/01/23 03:11:59;;;;;;;27.60;21.25;;;;;;;-3.58;100.00;100026.97;2089597;28;20637;-69
2022/01/23 03:14:37;;;;;;;24.27;19.85;;;;;;;-3.49;100.00;100047.56;2084373;28;20205;-70
2022/01/23 03:24:19;;;;;;;33.22;21.60;;;;;;;-3.58;100.00;100035.59;2058303;28;20288;-69
2022/01/23 03:25:51;;;;;;;26.20;21.92;;;;;;;-3.62;100.00;100031.75;2090791;28;20203;-70
2022/01/23 03:27:15;;;;;;;31.20;22.20;;;;;;;-3.62;100.00;100029.13;2091380;28;20206;-70
2022/01/23 03:28:25;;;;;;;30.80;22.55;;;;;;;-3.61;100.00;100040.38;2091170;28;20715;-69
2022/01/23 03:29:50;;;;;;;31.73;22.20;;;;;;;-3.66;100.00;100029.66;2091320;28;20705;-70
2022/01/23 03:31:05;;;;;;;30.75;21.67;;;;;;;-3.64;100.00;100036.34;2091773;28;20199;-69
2022/01/23 03:32:20;;;;;;;32.72;21.48;;;;;;;-3.65;100.00;100036.50;2091389;28;20711;-69
2022/01/23 03:33:23;;;;;;;27.90;21.35;;;;;;;-3.72;100.00;100036.41;2091321;28;20689;-68
2022/01/23 03:34:27;;;;;;;29.60;22.58;;;;;;;-3.70;100.00;100042.25;2091774;28;20273;-69
2022/01/23 03:35:32;;;;;;;25.95;21.35;;;;;;;-3.70;100.00;100039.66;2091668;28;20236;-69
2022/01/23 03:36:38;;;;;;;28.48;21.13;;;;;;;-3.70;100.00;100035.25;2091085;28;20262;-69
2022/01/23 03:37:48;;;;;;;33.75;21.90;;;;;;;-3.67;100.00;100039.28;2091185;28;20199;-68
2022/01/23 03:38:57;;;;;;;36.97;22.60;;;;;;;-3.67;100.00;100043.69;2084642;28;20665;-69
2022/01/23 03:40:01;;;;;;;28.95;22.38;;;;;;;-3.68;100.00;100029.84;2083779;28;20595;-69
2022/01/23 03:41:02;;;;;;;30.30;21.95;;;;;;;-3.67;100.00;100041.09;2082848;28;20207;-69
2022/01/23 03:42:06;;;;;;;31.98;22.73;;;;;;;-3.66;100.00;100035.69;2082635;28;20200;-69
2022/01/23 03:43:14;;;;;;;32.50;22.75;;;;;;;-3.68;100.00;100037.66;2083606;28;20210;-69
2022/01/23 03:44:23;;;;;;;29.58;22.55;;;;;;;-3.70;100.00;100034.44;2084018;28;20195;-69
2022/01/23 03:45:53;;;;;;;34.40;21.70;;;;;;;-3.70;100.00;100031.81;2083227;28;20777;-69
2022/01/23 03:47:14;;;;;;;36.25;23.40;;;;;;;-3.71;100.00;100027.59;2086387;28;20759;-69
2022/01/23 03:49:38;;;;;;;33.83;23.38;;;;;;;-3.70;100.00;100029.22;2091186;28;20179;-69
2022/01/23 03:51:01;;;;;;;34.28;23.38;;;;;;;-3.73;100.00;100037.41;2091241;28;20179;-69
2022/01/23 03:52:15;;;;;;;40.95;23.13;;;;;;;-3.73;100.00;100027.78;2090957;28;20209;-69
2022/01/23 03:53:19;;;;;;;31.45;23.13;;;;;;;-3.75;100.00;100027.13;2083748;28;20211;-69
2022/01/23 03:54:23;;;;;;;33.63;23.75;;;;;;;-3.77;100.00;100030.91;2082743;28;20200;-69
2022/01/23 03:55:28;;;;;;;36.17;22.98;;;;;;;-3.74;100.00;100026.16;2083305;28;20237;-68
2022/01/23 03:56:31;;;;;;;35.13;23.88;;;;;;;-3.76;100.00;100038.56;2082313;28;20585;-69
2022/01/23 03:57:39;;;;;;;39.38;24.88;;;;;;;-3.76;100.00;100035.13;2082997;28;20188;-69
2022/01/23 03:58:44;;;;;;;30.80;23.75;;;;;;;-3.78;100.00;100035.31;2083481;28;20203;-69
2022/01/23 03:59:59;;;;;;;39.10;24.50;;;;;;;-3.80;100.00;100026.06;2084590;28;20200;-69
2022/01/23 04:01:01;;;;;;;37.13;24.55;;;;;;;-3.77;100.00;100026.50;2083248;28;20203;-69
2022/01/23 04:02:06;;;;;;;30.42;24.58;;;;;;;-3.78;100.00;100037.13;2082563;28;20247;-68
2022/01/23 04:03:07;;;;;;;34.60;24.00;;;;;;;-3.80;100.00;100034.69;2083137;28;20208;-69
2022/01/23 04:04:26;;;;;;;37.43;24.93;;;;;;;-3.80;100.00;100031.28;2082501;28;20207;-69
2022/01/23 04:05:30;;;;;;;36.95;24.60;;;;;;;-3.77;100.00;100038.75;2085155;28;20507;-69
2022/01/23 04:06:38;;;;;;;36.63;23.98;;;;;;;-3.70;100.00;100034.44;2090495;28;20284;-69
2022/01/23 04:07:40;;;;;;;38.38;24.92;;;;;;;-3.73;100.00;100033.00;2091404;28;20191;-69
2022/01/23 04:08:48;;;;;;;34.55;24.42;;;;;;;-3.78;100.00;100043.16;2091001;28;20657;-69
2022/01/23 04:09:50;;;;;;;38.42;24.58;;;;;;;-3.82;100.00;100028.03;2083254;28;20697;-68
2022/01/23 04:10:56;;;;;;;40.35;24.88;;;;;;;-3.83;100.00;100026.41;2082686;28;20678;-69
2022/01/23 04:12:02;;;;;;;36.80;23.92;;;;;;;-3.84;100.00;100032.63;2082910;28;20593;-68
2022/01/23 04:13:17;;;;;;;40.88;24.90;;;;;;;-3.86;100.00;100040.63;2083252;28;20187;-68
2022/01/23 04:14:24;;;;;;;36.20;24.83;;;;;;;-3.90;100.00;100030.75;2084291;28;20218;-69
2022/01/23 04:15:35;;;;;;;37.25;24.88;;;;;;;-3.89;100.00;100034.97;2091148;28;20334;-69
2022/01/23 04:18:45;;;;;;;35.33;24.88;;;;;;;-3.84;100.00;100041.25;2090342;28;20194;-69
2022/01/23 04:19:54;;;;;;;39.90;25.98;;;;;;;-3.82;100.00;100041.91;2090769;28;20292;-69
2022/01/23 04:32:06;;;;;;;37.78;25.60;;;;;;;-3.85;100.00;100064.88;2090648;28;20201;-68
2022/01/23 04:34:37;;;;;;;36.75;25.52;;;;;;;-3.71;100.00;100074.53;2081486;28;20203;-69
2022/01/23 04:45:20;;;;;;;36.78;26.73;;;;;;;-3.77;100.00;100076.06;2082279;28;20282;-68
2022/01/23 04:47:01;;;;;;;42.58;28.02;;;;;;;-3.84;100.00;100075.13;2082646;28;20176;-69
2022/01/23 04:48:49;;;;;;;45.15;28.48;;;;;;;-3.91;100.00;100082.06;2082383;28;20326;-68
2022/01/23 05:00:46;;;;;;;47.45;28.33;;;;;;;-3.96;100.00;100080.97;2090780;28;20182;-69
2022/01/23 05:02:06;;;;;;;49.33;29.30;;;;;;;-4.02;100.00;100085.88;2090339;28;20689;-68
2022/01/23 05:04:56;;;;;;;44.85;29.27;;;;;;;-3.99;100.00;100088.16;2091130;28;20226;-68
2022/01/23 05:06:31;;;;;;;43.08;27.58;;;;;;;-4.03;100.00;100092.09;2090550;28;20226;-69
2022/01/23 05:08:04;;;;;;;49.45;28.75;;;;;;;-4.04;100.00;100100.91;2088739;28;20199;-69
2022/01/23 05:09:30;;;;;;;39.78;28.92;;;;;;;-4.05;100.00;100096.66;2090573;28;20211;-69
2022/01/23 05:10:53;;;;;;;43.80;27.83;;;;;;;-4.06;100.00;100092.44;2085021;28;20638;-69
2022/01/23 05:12:36;;;;;;;46.75;28.88;;;;;;;-4.07;100.00;100096.03;2082959;28;20201;-69
2022/01/23 05:13:38;;;;;;;51.80;29.30;;;;;;;-4.06;100.00;100095.06;2090198;28;20199;-69
2022/01/23 05:14:46;;;;;;;49.55;29.15;;;;;;;-4.06;100.00;100095.06;2090415;28;20219;-69
2022/01/23 05:15:52;;;;;;;48.78;29.88;;;;;;;-4.01;100.00;100102.31;2090354;28;20311;-69
2022/01/23 05:17:00;;;;;;;44.78;29.90;;;;;;;-3.96;100.00;100097.41;2082947;28;20571;-69
2022/01/23 05:18:01;;;;;;;52.03;30.92;;;;;;;-3.95;100.00;100106.03;2090432;28;20191;-68
2022/01/23 05:19:04;;;;;;;47.78;29.35;;;;;;;-3.99;100.00;100105.59;2090900;28;20195;-69
2022/01/23 05:20:11;;;;;;;45.65;29.25;;;;;;;-3.99;100.00;100101.19;2090166;28;20195;-69
2022/01/23 05:21:41;;;;;;;47.38;31.20;;;;;;;-4.00;100.00;100106.56;2090113;28;20241;-69
2022/01/23 05:22:48;;;;;;;52.28;30.40;;;;;;;-3.98;100.00;100109.81;2090099;28;20372;-69
2022/01/23 05:23:54;;;;;;;48.33;30.77;;;;;;;-4.04;100.00;100094.88;2090311;28;20218;-69
2022/01/23 05:25:09;;;;;;;46.50;30.00;;;;;;;-4.05;100.00;100101.88;2090761;28;20198;-69
2022/01/23 05:26:12;;;;;;;46.42;29.90;;;;;;;-4.02;100.00;100108.53;2090054;28;20210;-68
2022/01/23 05:27:15;;;;;;;44.95;29.17;;;;;;;-4.05;100.00;100108.88;2090140;28;20259;-68
2022/01/23 05:28:21;;;;;;;49.38;30.00;;;;;;;-4.03;100.00;100099.09;2091021;28;20323;-69
2022/01/23 05:29:28;;;;;;;50.15;31.35;;;;;;;-4.03;100.00;100096.50;2090510;28;20654;-70
2022/01/23 05:30:35;;;;;;;48.42;31.10;;;;;;;-4.06;100.00;100097.66;2090551;28;20171;-69
2022/01/23 05:31:39;;;;;;;44.90;29.70;;;;;;;-4.07;100.00;100101.25;2090012;28;20203;-68
2022/01/23 05:32:47;;;;;;;49.10;30.45;;;;;;;-4.04;100.00;100106.09;2090043;28;20672;-68
2022/01/23 05:33:48;;;;;;;50.92;29.13;;;;;;;-4.05;100.00;100103.69;2090373;28;20529;-68
2022/01/23 05:34:52;;;;;;;47.00;30.88;;;;;;;-4.10;100.00;100104.19;2082003;28;20282;-69
2022/01/23 05:35:59;;;;;;;50.47;31.52;;;;;;;-4.07;100.00;100096.03;2082543;28;20697;-68
2022/01/23 05:37:04;;;;;;;49.42;30.35;;;;;;;-4.12;100.00;100097.53;2081643;28;20281;-68
2022/01/23 05:38:17;;;;;;;47.90;30.65;;;;;;;-4.04;100.00;100100.09;2082297;28;20200;-69
2022/01/23 05:39:20;;;;;;;56.25;30.92;;;;;;;-4.06;100.00;100100.25;2083211;28;20199;-69
2022/01/23 05:40:29;;;;;;;51.83;32.22;;;;;;;-4.10;100.00;100100.78;2090416;28;20212;-69
2022/01/23 05:41:34;;;;;;;47.15;31.38;;;;;;;-4.07;100.00;100110.88;2082659;28;20200;-69
2022/01/23 05:42:38;;;;;;;53.70;31.98;;;;;;;-4.13;100.00;100096.72;2082256;28;20230;-69
2022/01/23 05:43:42;;;;;;;52.25;31.85;;;;;;;-4.10;100.00;100095.56;2082164;28;20602;-68
2022/01/23 05:44:50;;;;;;;54.92;32.05;;;;;;;-4.10;100.00;100101.59;2090274;28;20225;-69
2022/01/23 05:45:56;;;;;;;47.25;30.88;;;;;;;-4.07;100.00;100103.84;2090400;28;20206;-69
2022/01/23 05:47:14;;;;;;;45.55;30.60;;;;;;;-4.05;100.00;100109.69;2090355;28;20574;-69
2022/01/23 05:48:36;;;;;;;55.75;30.83;;;;;;;-4.05;100.00;100108.88;2090077;28;20799;-69
2022/01/23 05:49:56;;;;;;;49.60;32.08;;;;;;;-4.10;100.00;100101.59;2090296;28;20171;-69
2022/01/23 05:51:26;;;;;;;54.85;30.38;;;;;;;-4.12;100.00;100106.16;2087311;28;20230;-69
2022/01/23 05:52:47;;;;;;;44.92;30.65;;;;;;;-4.11;100.00;100113.00;2089966;28;20207;-68
2022/01/23 05:54:08;;;;;;;48.35;30.30;;;;;;;-4.12;100.00;100119.19;2084670;28;20290;-69
2022/01/23 05:55:50;;;;;;;49.15;29.30;;;;;;;-4.10;100.00;100119.81;2079300;28;20203;-69
2022/01/23 05:57:06;;;;;;;56.30;31.17;;;;;;;-4.12;100.00;100121.00;2081451;28;20256;-69
2022/01/23 05:58:22;;;;;;;48.70;30.40;;;;;;;-4.12;100.00;100119.19;2073368;28;20658;-69
2022/01/23 05:59:30;;;;;;;46.92;30.80;;;;;;;-4.13;100.00;100117.56;2072466;28;20678;-68
2022/01/23 06:00:37;;;;;;;53.25;31.35;;;;;;;-4.11;100.00;100115.59;2065255;28;20205;-69
2022/01/23 06:01:51;;;;;;;53.47;31.42;;;;;;;-4.13;100.00;100112.38;2078157;28;20220;-70
2022/01/23 06:02:55;;;;;;;50.95;30.92;;;;;;;-4.13;100.00;100114.97;2083175;28;20195;-68
2022/01/23 06:04:07;;;;;;;55.55;32.15;;;;;;;-4.11;100.00;100109.59;2083439;28;20191;-69
2022/01/23 06:05:20;;;;;;;47.42;31.95;;;;;;;-4.13;100.00;100117.56;2082668;28;20359;-69
2022/01/23 06:06:33;;;;;;;50.42;32.25;;;;;;;-4.16;100.00;100106.72;2082752;28;20231;-69
2022/01/23 06:07:37;;;;;;;57.45;34.45;;;;;;;-4.18;100.00;100108.66;2082178;28;20212;-69
2022/01/23 06:08:43;;;;;;;59.33;33.83;;;;;;;-4.22;100.00;100099.56;2082150;28;20643;-69
2022/01/23 06:09:45;;;;;;;52.80;33.63;;;;;;;-4.20;100.00;100101.03;2081924;28;20261;-68
2022/01/23 06:10:53;;;;;;;59.37;35.27;;;;;;;-4.24;100.00;100104.16;2081617;28;20196;-69
2022/01/23 06:11:58;;;;;;;50.55;34.35;;;;;;;-4.25;100.00;100103.34;2083009;28;20941;-69
2022/01/23 06:13:03;;;;;;;60.30;34.38;;;;;;;-4.29;100.00;100096.84;2081954;28;20206;-68
2022/01/23 06:14:08;;;;;;;60.88;34.88;;;;;;;-4.31;100.00;100094.44;2082061;28;20206;-69
2022/01/23 06:15:20;;;;;;;60.83;35.97;;;;;;;-4.31;100.00;100104.03;2090061;28;20191;-68
2022/01/23 06:16:25;;;;;;;55.78;35.15;;;;;;;-4.28;100.00;100107.09;2089332;28;20207;-70
2022/01/23 06:17:47;;;;;;;53.13;33.45;;;;;;;-4.26;100.00;100101.69;2090346;28;20179;-68
2022/01/23 06:19:08;;;;;;;57.42;34.70;;;;;;;-4.28;100.00;100114.09;2090595;28;20593;-69
2022/01/23 06:20:37;;;;;;;60.90;35.53;;;;;;;-4.31;100.00;100124.88;2073252;28;20211;-68
2022/01/23 06:22:15;;;;;;;60.58;35.10;;;;;;;-4.32;100.00;100128.47;2064797;28;20212;-70
2022/01/23 06:23:37;;;;;;;56.42;35.30;;;;;;;-4.30;100.00;100118.69;2073606;28;20190;-69
2022/01/23 06:24:56;;;;;;;67.63;35.97;;;;;;;-4.31;100.00;100115.25;2090809;28;20164;-68
2022/01/23 06:26:04;;;;;;;59.22;36.10;;;;;;;-4.30;100.00;100121.28;2090477;28;20172;-68
2022/01/23 06:27:18;;;;;;;59.45;34.75;;;;;;;-4.31;100.00;100127.47;2089874;28;20191;-69
2022/01/23 06:28:32;;;;;;;51.42;33.80;;;;;;;-4.35;100.00;100115.78;2089841;28;20257;-68
2022/01/23 06:29:39;;;;;;;60.10;34.70;;;;;;;-4.36;100.00;100125.38;2090127;28;20203;-69
2022/01/23 06:30:42;;;;;;;63.55;36.72;;;;;;;-4.38;100.00;100124.75;2082144;28;20299;-68
2022/01/23 06:31:46;;;;;;;61.75;36.30;;;;;;;-4.38;100.00;100127.34;2089907;28;20182;-68
2022/01/23 06:32:48;;;;;;;60.90;34.95;;;;;;;-4.36;100.00;100132.38;2089613;28;20678;-68
2022/01/23 06:33:52;;;;;;;54.60;35.53;;;;;;;-4.38;100.00;100135.16;2081946;28;20251;-68
2022/01/23 06:34:58;;;;;;;53.85;35.65;;;;;;;-4.34;100.00;100135.66;2081759;28;20203;-68
2022/01/23 06:36:01;;;;;;;62.45;36.38;;;;;;;-4.36;100.00;100135.00;2080455;28;20202;-68
2022/01/23 06:37:07;;;;;;;56.30;35.80;;;;;;;-4.34;100.00;100135.66;2073576;28;20359;-69
2022/01/23 06:38:11;;;;;;;61.35;36.05;;;;;;;-4.32;100.00;100141.50;2074310;28;20224;-68
2022/01/23 06:39:15;;;;;;;59.28;36.13;;;;;;;-4.32;100.00;100134.50;2073537;28;20208;-68
2022/01/23 06:40:18;;;;;;;57.03;36.00;;;;;;;-4.28;100.00;100140.97;2073701;28;20203;-69
2022/01/23 06:41:41;;;;;;;59.88;35.40;;;;;;;-4.28;100.00;100148.78;2081922;28;20176;-69
2022/01/23 06:42:58;;;;;;;65.93;35.80;;;;;;;-4.24;100.00;100151.06;2081454;28;20238;-69
2022/01/23 06:44:15;;;;;;;57.78;35.22;;;;;;;-4.29;100.00;100156.75;2074940;28;20266;-68
2022/01/23 06:45:22;;;;;;;62.97;36.75;;;;;;;-4.26;100.00;100159.00;2081728;28;20670;-69
2022/01/23 06:46:28;;;;;;;58.17;36.65;;;;;;;-4.26;100.00;100156.41;2074277;28;20218;-69
2022/01/23 06:47:31;;;;;;;60.88;36.85;;;;;;;-4.27;100.00;100153.00;2073802;28;20253;-68
2022/01/23 06:48:34;;;;;;;61.28;36.55;;;;;;;-4.23;100.00;100155.28;2081245;28;20325;-68
2022/01/23 06:49:41;;;;;;;65.90;38.10;;;;;;;-4.20;100.00;100165.34;2073369;28;20713;-69
2022/01/23 06:50:46;;;;;;;54.25;36.00;;;;;;;-4.23;100.00;100161.28;2074070;28;20248;-69
2022/01/23 06:51:52;;;;;;;58.85;37.28;;;;;;;-4.21;100.00;100161.94;2073184;28;20216;-68
2022/01/23 06:52:54;;;;;;;66.57;37.25;;;;;;;-4.24;100.00;100172.72;2073810;28;20637;-68
2022/01/23 06:53:58;;;;;;;66.27;35.97;;;;;;;-4.24;100.00;100164.88;2073324;28;20204;-68
2022/01/23 06:54:59;;;;;;;62.88;37.85;;;;;;;-4.24;100.00;100167.50;2073641;28;20695;-68
2022/01/23 06:56:04;;;;;;;63.57;37.33;;;;;;;-4.22;100.00;100165.53;2073327;28;20579;-68
2022/01/23 06:57:13;;;;;;;69.28;38.15;;;;;;;-4.22;100.00;100170.72;2073656;28;20538;-68
2022/01/23 06:58:18;;;;;;;61.50;37.40;;;;;;;-4.17;100.00;100178.84;2074365;28;20235;-68
2022/01/23 06:59:24;;;;;;;63.40;36.28;;;;;;;-4.14;100.00;100180.28;2074024;28;20203;-68
2022/01/23 07:00:35;;;;;;;58.67;36.15;;;;;;;-4.12;100.00;100176.53;2074395;28;20211;-69
2022/01/23 07:01:44;;;;;;;60.90;38.25;;;;;;;-4.16;100.00;100179.66;2081677;28;20230;-68
2022/01/23 07:03:05;;;;;;;61.08;37.30;;;;;;;-4.10;100.00;100181.56;2081409;28;20187;-69
2022/01/23 07:04:47;;;;;;;62.35;37.65;;;;;;;-4.10;100.00;100178.94;2064826;28;20248;-68
2022/01/23 07:06:01;;;;;;;68.72;37.35;;;;;;;-4.15;100.00;100182.09;2056648;28;20212;-69
2022/01/23 07:07:23;;;;;;;62.92;36.17;;;;;;;-4.13;100.00;100181.91;2059704;28;20200;-68